Time;durP1;ratioP1;P1;durP2;ratioP2;P2;SDS_P1;SDS_P2;PMS_P1;PMS_P2;Temp;Humidity;BMP_temperature;BMP_pressure;BME280_temperature;BME280_humidity;BME280_pressure;Samples;Min_cycle;Max_cycle;Signal;HPM_P1;HPM_P2
2022/07/16 00:56:36;;;;;;;;;;;;;;;18.2;50.09277;102158.8;;;;-81
2022/07/16 01:34:47;;;;;;;;;;;;;;;;;;;;;
2022/07/16 01:59:58;;;;;;;;;;;;;;;17.85;52.1416;102177.3;;;;-82
2022/07/16 02:28:05;;;;;;;;;;;;;;;18.03;52.25391;102181.4;;;;-81
2022/07/16 02:46:52;;;;;;;;;;;;;;;18.04;52.38965;102212.5;;;;-86
2022/07/16 02:47:12;;;;;;;3;1;;;;;;;;;;;;;-86
2022/07/16 02:50:03;;;;;;;;;;;;;;;17.69;53.00684;102219.2;;;;-87
2022/07/16 02:55:09;;;;;;;;;;;;;;;17.67;53.25488;102224.2;;;;-86
2022/07/16 03:00:04;;;;;;;;;;;;;;;17.68;53.08496;102231.1;;;;-86
2022/07/16 03:06:17;;;;;;;;;;;;;;;18.08;52.41797;102234.9;;;;-82
2022/07/16 03:12:30;;;;;;;;;;;;;;;;;;;;;
2022/07/16 03:48:33;;;;;;;;;;;;;;;17.53;52.44434;102273.9;;;;-81
2022/07/16 04:14:36;;;;;;;;;;;;;;;16.91;53.00391;102301.7;;;;-82
2022/07/16 04:35:24;;;;;;;;;;;;;;;16.61;53.05957;102319.3;;;;-82
2022/07/16 04:53:18;;;;;;;;;;;;;;;16.81;52.79883;102331;;;;-80
2022/07/16 04:59:47;;;;;;;;;;;;;;;16.46;53.09766;102339.2;;;;-80
2022/07/16 05:08:48;;;;;;;;;;;;;;;16.42;53.28418;102346;;;;-82
2022/07/16 05:43:13;;;;;;;;;;;;;;;18.33;50.62988;102359;;;;-87
2022/07/16 06:05:00;;;;;;;;;;;;;;;20.96;46.02344;102368.2;;;;-81
2022/07/16 09:16:39;;;;;;;;;;;;;;;29.8;31.17773;102535.5;;;;-84
2022/07/16 10:08:03;;;;;;;;;;;;;;;31.35;28.31836;102592.2;;;;-81
2022/07/16 10:12:08;;;;;;;;;;;;;;;30.91;28.89063;102589.5;;;;-82
2022/07/16 10:17:00;;;;;;;;;;;;;;;30.89;28.62988;102595.1;;;;-81
2022/07/16 10:17:26;;;;;;;2.3;0.6;;;;;;;;;;;;;-80
2022/07/16 10:22:09;;;;;;;;;;;;;;;30.94;28.43359;102596.9;;;;-81
2022/07/16 10:27:09;;;;;;;;;;;;;;;30.96;28.41113;102604.8;;;;-79
2022/07/16 10:36:58;;;;;;;;;;;;;;;31.4;28.20313;102610.9;;;;-79
2022/07/16 10:41:59;;;;;;;;;;;;;;;31.65;27.74707;102600.4;;;;-80
2022/07/16 10:47:04;;;;;;;;;;;;;;;31.89;27.95117;102605.6;;;;-80
2022/07/16 10:47:38;;;;;;;3;0.6;;;;;;;;;;;;;-80
2022/07/16 10:52:05;;;;;;;;;;;;;;;32.09;27.62012;102611.8;;;;-79
2022/07/16 10:56:58;;;;;;;;;;;;;;;32.2;27.52148;102612.1;;;;-79
2022/07/16 11:01:59;;;;;;;;;;;;;;;32.44;27.37109;102616.8;;;;-81
2022/07/16 11:07:01;;;;;;;;;;;;;;;32.68;27.13672;102614.9;;;;-81
2022/07/16 11:11:58;;;;;;;;;;;;;;;32.92;27.12695;102614.4;;;;-82
2022/07/16 11:16:57;;;;;;;;;;;;;;;33.17;26.84668;102604.5;;;;-80
2022/07/16 11:17:33;;;;;;;3.6;0.6;;;;;;;;;;;;;-81
2022/07/16 11:22:03;;;;;;;;;;;;;;;33.48;26.0127;102616.9;;;;-83
2022/07/16 11:27:01;;;;;;;;;;;;;;;33.64;25.38184;102628.7;;;;-80
2022/07/16 11:32:00;;;;;;;;;;;;;;;33.5;25.59961;102631;;;;-79
2022/07/16 11:36:59;;;;;;;;;;;;;;;33.45;25.44238;102634.7;;;;-78
2022/07/16 11:41:58;;;;;;;;;;;;;;;33.6;25.47461;102633.5;;;;-79
2022/07/16 11:46:58;;;;;;;;;;;;;;;33.82;25.27441;102639.1;;;;-79
2022/07/16 11:47:40;;;;;;;2.9;1.1;;;;;;;;;;;;;-81
2022/07/16 11:51:59;;;;;;;;;;;;;;;34.05;25.02539;102640.3;;;;-79
2022/07/16 11:57:02;;;;;;;;;;;;;;;34.27;24.5752;102652.2;;;;-82
2022/07/16 12:02:07;;;;;;;;;;;;;;;34.49;24.4082;102650;;;;-80
2022/07/16 12:07:04;;;;;;;;;;;;;;;34.63;24.16602;102651.4;;;;-80
2022/07/16 12:12:01;;;;;;;;;;;;;;;34.67;24.33496;102649.9;;;;-80
2022/07/16 12:17:00;;;;;;;;;;;;;;;34.65;24.25098;102662.2;;;;-81
2022/07/16 12:17:44;;;;;;;15.3;7.4;;;;;;;;;;;;;-79
2022/07/16 12:21:58;;;;;;;;;;;;;;;34.48;24.39551;102662.7;;;;-81
2022/07/16 12:27:00;;;;;;;;;;;;;;;34.5;24.49219;102670.8;;;;-82
2022/07/16 12:32:05;;;;;;;;;;;;;;;34.51;24.46875;102670;;;;-80
2022/07/16 12:36:58;;;;;;;;;;;;;;;34.57;24.40137;102674;;;;-81
2022/07/16 12:41:58;;;;;;;;;;;;;;;34.59;23.89063;102677.4;;;;-80
2022/07/16 12:47:02;;;;;;;;;;;;;;;34.67;23.82422;102688;;;;-80
2022/07/16 12:47:48;;;;;;;24.6;13.8;;;;;;;;;;;;;-80
2022/07/16 12:51:59;;;;;;;;;;;;;;;34.69;24.25293;102689.5;;;;-81
2022/07/16 13:02:01;;;;;;;;;;;;;;;34.62;24.13086;102691.4;;;;-80
2022/07/16 13:06:58;;;;;;;;;;;;;;;34.56;24.26953;102682.7;;;;-72
2022/07/16 13:11:58;;;;;;;;;;;;;;;34.53;24.29199;102686.1;;;;-72
2022/07/16 13:17:00;;;;;;;;;;;;;;;34.43;24.5;102679.5;;;;-73
2022/07/16 13:17:54;;;;;;;11.1;4.9;;;;;;;;;;;;;-73
2022/07/16 13:21:58;;;;;;;;;;;;;;;34.43;24.58301;102666.5;;;;-74
2022/07/16 13:26:58;;;;;;;;;;;;;;;34.53;24.23242;102670.4;;;;-73
2022/07/16 13:31:57;;;;;;;;;;;;;;;34.63;24.08398;102671.2;;;;-72
2022/07/16 13:36:59;;;;;;;;;;;;;;;34.66;24.13281;102669;;;;-73
2022/07/16 13:42:01;;;;;;;;;;;;;;;34.72;24.59863;102672.1;;;;-73
2022/07/16 13:46:57;;;;;;;;;;;;;;;34.7;24.13477;102669.3;;;;-73
2022/07/16 13:47:59;;;;;;;6.9;3.4;;;;;;;;;;;;;-72
2022/07/16 13:51:58;;;;;;;;;;;;;;;34.8;23.9502;102675.5;;;;-72
2022/07/16 13:58:13;;;;;;;;;;;;;;;34.84;24.43945;102677.6;;;;-73
2022/07/16 14:01:58;;;;;;;;;;;;;;;34.86;24.19043;102672.4;;;;-80
2022/07/16 14:06:58;;;;;;;;;;;;;;;34.95;24.05273;102669.9;;;;-81
2022/07/16 14:11:58;;;;;;;;;;;;;;;35.05;23.82031;102679.1;;;;-78
2022/07/16 14:17:02;;;;;;;;;;;;;;;35.06;23.96387;102674.5;;;;-81
2022/07/16 14:18:06;;;;;;;73.6;46.8;;;;;;;;;;;;;-79
2022/07/16 14:21:57;;;;;;;;;;;;;;;35.13;23.69336;102682.8;;;;-81
2022/07/16 14:27:00;;;;;;;;;;;;;;;35.19;24.18457;102670;;;;-80
2022/07/16 14:31:58;;;;;;;;;;;;;;;35.18;23.82715;102672.1;;;;-79
2022/07/16 14:36:57;;;;;;;;;;;;;;;35.2;24.01855;102677.9;;;;-81
2022/07/16 14:41:57;;;;;;;;;;;;;;;35.17;23.73145;102674.5;;;;-78
2022/07/16 14:46:58;;;;;;;;;;;;;;;35.09;23.8584;102680.2;;;;-74
2022/07/16 14:48:12;;;;;;;22;13.9;;;;;;;;;;;;;-73
2022/07/16 14:52:00;;;;;;;;;;;;;;;35.08;23.64355;102688.2;;;;-78
2022/07/16 15:02:10;;;;;;;;;;;;;;;35.05;23.83203;102696.8;;;;-81
2022/07/16 15:07:44;;;;;;;;;;;;;;;35.23;23.75781;102707.7;;;;-76
2022/07/16 15:11:24;;;;;;;;;;;;;;;34.7;23.65918;102697;;;;-80
2022/07/16 15:16:21;;;;;;;;;;;;;;;34.37;23.84473;102699.5;;;;-81
2022/07/16 15:18:17;;;;;;;8.2;3.9;;;;;;;;;;;;;-80
2022/07/16 15:21:21;;;;;;;;;;;;;;;34.23;24.16895;102701.1;;;;-82
2022/07/16 15:26:22;;;;;;;;;;;;;;;34.11;24.30469;102698.9;;;;-78
2022/07/16 15:31:24;;;;;;;;;;;;;;;34.02;24.47852;102699.1;;;;-77
2022/07/16 15:36:21;;;;;;;;;;;;;;;33.9;24.1875;102702.9;;;;-77
2022/07/16 15:41:22;;;;;;;;;;;;;;;33.75;24.55859;102707.8;;;;-79
2022/07/16 15:46:21;;;;;;;;;;;;;;;33.53;24.73633;102704.4;;;;-78
2022/07/16 15:48:22;;;;;;;4.6;2;;;;;;;;;;;;;-79
2022/07/16 15:51:21;;;;;;;;;;;;;;;33.31;24.73633;102704.8;;;;-78
2022/07/16 15:56:21;;;;;;;;;;;;;;;33.16;24.97656;102702.6;;;;-80
2022/07/16 16:01:21;;;;;;;;;;;;;;;33.01;25.34766;102705.7;;;;-78
2022/07/16 16:06:21;;;;;;;;;;;;;;;32.81;25.12305;102700.2;;;;-77
2022/07/16 16:11:21;;;;;;;;;;;;;;;32.57;25.74805;102695.8;;;;-79
2022/07/16 16:16:21;;;;;;;;;;;;;;;32.37;25.9375;102689.4;;;;-79
2022/07/16 16:18:28;;;;;;;3.8;1.3;;;;;;;;;;;;;-79
2022/07/16 16:21:21;;;;;;;;;;;;;;;32.23;25.76465;102698.3;;;;-79
2022/07/16 16:26:21;;;;;;;;;;;;;;;32.07;26.12109;102697.6;;;;-78
2022/07/16 16:31:21;;;;;;;;;;;;;;;31.86;26.67578;102699.3;;;;-79
2022/07/16 16:36:21;;;;;;;;;;;;;;;31.65;26.75684;102710.3;;;;-76
2022/07/16 16:41:22;;;;;;;;;;;;;;;31.42;27.03809;102706.3;;;;-79
2022/07/16 16:46:21;;;;;;;;;;;;;;;31.14;27.31641;102700.7;;;;-77
2022/07/16 16:48:33;;;;;;;2.2;1;;;;;;;;;;;;;-77
2022/07/16 16:51:21;;;;;;;;;;;;;;;30.92;27.64355;102706.3;;;;-77
2022/07/16 16:56:24;;;;;;;;;;;;;;;30.67;27.91113;102707.5;;;;-78
2022/07/16 17:01:21;;;;;;;;;;;;;;;30.39;28.19922;102710.4;;;;-77
2022/07/16 17:06:21;;;;;;;;;;;;;;;30.08;28.3916;102716.3;;;;-76
2022/07/16 17:11:21;;;;;;;;;;;;;;;29.82;28.49316;102719.8;;;;-78
2022/07/16 17:16:21;;;;;;;;;;;;;;;29.58;28.78223;102726.7;;;;-78
2022/07/16 17:18:37;;;;;;;3.9;0.9;;;;;;;;;;;;;-75
2022/07/16 17:21:26;;;;;;;;;;;;;;;29.36;29.13281;102725.9;;;;-79
2022/07/16 17:26:21;;;;;;;;;;;;;;;29.15;29.10742;102738.7;;;;-81
2022/07/16 17:31:21;;;;;;;;;;;;;;;28.89;29.06641;102739.6;;;;-78
2022/07/16 17:36:21;;;;;;;;;;;;;;;28.63;29.22559;102746.1;;;;-79
2022/07/16 17:41:21;;;;;;;;;;;;;;;28.3;29.33301;102742.7;;;;-77
2022/07/16 17:46:21;;;;;;;;;;;;;;;28.12;29.70703;102748.2;;;;-77
2022/07/16 17:51:21;;;;;;;;;;;;;;;27.82;29.87402;102739.7;;;;-78
2022/07/16 17:56:21;;;;;;;;;;;;;;;27.6;30.11621;102747.1;;;;-79
2022/07/16 18:01:24;;;;;;;;;;;;;;;27.38;30.33496;102750;;;;-78
2022/07/16 18:06:21;;;;;;;;;;;;;;;27.17;30.49609;102751.8;;;;-73
2022/07/16 18:11:21;;;;;;;;;;;;;;;26.99;30.6582;102751.6;;;;-72
2022/07/16 18:16:21;;;;;;;;;;;;;;;26.8;30.78516;102752.1;;;;-75
2022/07/16 18:18:46;;;;;;;2.4;0.7;;;;;;;;;;;;;-72
2022/07/16 18:21:21;;;;;;;;;;;;;;;26.62;30.90039;102748.7;;;;-77
2022/07/16 18:26:21;;;;;;;;;;;;;;;26.44;30.99414;102757.1;;;;-75
2022/07/16 18:31:21;;;;;;;;;;;;;;;26.24;31.07227;102749.2;;;;-73
2022/07/16 18:36:21;;;;;;;;;;;;;;;26.08;31.21289;102750;;;;-74
2022/07/16 18:41:21;;;;;;;;;;;;;;;25.89;31.23438;102748;;;;-74
2022/07/16 18:46:21;;;;;;;;;;;;;;;25.72;31.4668;102756.9;;;;-73
2022/07/16 18:48:50;;;;;;;3.8;0.6;;;;;;;;;;;;;-73
2022/07/16 18:51:21;;;;;;;;;;;;;;;25.48;31.68262;102750.8;;;;-73
2022/07/16 18:56:21;;;;;;;;;;;;;;;25.26;31.875;102757.5;;;;-76
2022/07/16 19:01:21;;;;;;;;;;;;;;;24.97;32.00684;102759.8;;;;-77
2022/07/16 19:06:21;;;;;;;;;;;;;;;24.66;32.16895;102760.1;;;;-77
2022/07/16 19:11:21;;;;;;;;;;;;;;;24.37;32.36816;102762.2;;;;-78
2022/07/16 19:16:21;;;;;;;;;;;;;;;24.05;32.58789;102758.1;;;;-77
2022/07/16 19:18:56;;;;;;;3.6;0.7;;;;;;;;;;;;;-78
2022/07/16 19:21:21;;;;;;;;;;;;;;;23.72;32.83008;102759.9;;;;-77
2022/07/16 19:26:22;;;;;;;;;;;;;;;23.41;33.22266;102753.1;;;;-77
2022/07/16 19:31:32;;;;;;;;;;;;;;;23.07;33.5791;102758.6;;;;-77
2022/07/16 19:36:21;;;;;;;;;;;;;;;22.6;36.05566;102771;;;;-78
2022/07/16 19:41:21;;;;;;;;;;;;;;;22.29;35.69824;102773.1;;;;-77
2022/07/16 19:46:21;;;;;;;;;;;;;;;22.07;35.86426;102770.9;;;;-77
2022/07/16 19:49:01;;;;;;;3.1;0.8;;;;;;;;;;;;;-77
2022/07/16 19:51:22;;;;;;;;;;;;;;;21.83;36.23633;102780.3;;;;-78
2022/07/16 20:01:23;;;;;;;;;;;;;;;21.34;36.8623;102792.1;;;;-77
2022/07/16 20:06:21;;;;;;;;;;;;;;;21.11;37.21094;102797.7;;;;-79
2022/07/16 20:11:21;;;;;;;;;;;;;;;20.86;37.44238;102808.6;;;;-78
2022/07/16 20:16:22;;;;;;;;;;;;;;;20.64;37.87109;102809.5;;;;-79
2022/07/16 20:19:01;;;;;;;2.8;0.8;;;;;;;;;;;;;-76
2022/07/16 20:21:22;;;;;;;;;;;;;;;20.43;38.23047;102809.8;;;;-76
2022/07/16 20:26:20;;;;;;;;;;;;;;;20.24;38.53613;102806.6;;;;-77
2022/07/16 20:31:21;;;;;;;;;;;;;;;20.05;38.75879;102797.4;;;;-78
2022/07/16 20:36:21;;;;;;;;;;;;;;;19.88;39.05371;102801.8;;;;-78
2022/07/16 20:41:22;;;;;;;;;;;;;;;19.68;39.11523;102792.9;;;;-79
2022/07/16 20:46:24;;;;;;;;;;;;;;;19.55;39.49414;102799.5;;;;-78
2022/07/16 20:49:04;;;;;;;3.7;0.7;;;;;;;;;;;;;-78
2022/07/16 20:51:21;;;;;;;;;;;;;;;19.37;39.48926;102802.1;;;;-77
2022/07/16 20:56:21;;;;;;;;;;;;;;;19.23;39.89844;102798.5;;;;-76
2022/07/16 21:01:21;;;;;;;;;;;;;;;19.1;40.08105;102805.9;;;;-78
2022/07/16 21:06:21;;;;;;;;;;;;;;;18.93;40.13379;102806.8;;;;-78
2022/07/16 21:11:21;;;;;;;;;;;;;;;18.84;40.37793;102819.4;;;;-78
2022/07/16 21:16:21;;;;;;;;;;;;;;;18.74;40.45898;102826;;;;-76
2022/07/16 21:19:05;;;;;;;2.3;0.8;;;;;;;;;;;;;-77
2022/07/16 21:21:20;;;;;;;;;;;;;;;18.63;40.73438;102833.3;;;;-77
2022/07/16 21:26:20;;;;;;;;;;;;;;;18.5;40.78027;102837.4;;;;-78
2022/07/16 21:31:21;;;;;;;;;;;;;;;18.35;41.0625;102839.9;;;;-77
2022/07/16 21:36:24;;;;;;;;;;;;;;;18.26;41.48633;102843.8;;;;-77
2022/07/16 21:56:19;;;;;;;;;;;;;;;18.08;41.6748;102828;;;;-75
2022/07/16 22:00:32;;;;;;;;;;;;;;;17.76;42.04199;102840.3;;;;-79
2022/07/16 22:05:34;;;;;;;;;;;;;;;17.68;42.31934;102845.3;;;;-80
2022/07/16 22:10:31;;;;;;;;;;;;;;;17.59;42.4248;102847.6;;;;-79
2022/07/16 22:15:30;;;;;;;;;;;;;;;17.49;42.52832;102839.9;;;;-79
2022/07/16 22:25:28;;;;;;;;;;;;;;;17.3;42.7832;102827.4;;;;-80
2022/07/16 22:30:27;;;;;;;;;;;;;;;17.22;42.96777;102828.9;;;;-78
2022/07/16 22:35:30;;;;;;;;;;;;;;;17.15;43.2002;102831.7;;;;-80
2022/07/16 22:40:29;;;;;;;;;;;;;;;17.04;43.28027;102831.9;;;;-79
2022/07/16 22:45:33;;;;;;;;;;;;;;;16.94;43.42871;102839.4;;;;-78
2022/07/16 22:49:15;;;;;;;3.2;1.1;;;;;;;;;;;;;-78
2022/07/16 22:50:27;;;;;;;;;;;;;;;16.86;43.75098;102841.5;;;;-80
2022/07/16 22:55:29;;;;;;;;;;;;;;;16.8;43.67676;102841.6;;;;-79
2022/07/16 23:00:26;;;;;;;;;;;;;;;16.67;43.91309;102841.6;;;;-79
2022/07/16 23:05:26;;;;;;;;;;;;;;;16.62;44.05566;102841.4;;;;-79
2022/07/16 23:10:27;;;;;;;;;;;;;;;16.53;44.28516;102837.1;;;;-80
2022/07/16 23:15:30;;;;;;;;;;;;;;;16.48;44.26953;102835.3;;;;-77
2022/07/16 23:19:15;;;;;;;2.1;0.9;;;;;;;;;;;;;-79
2022/07/16 23:20:30;;;;;;;;;;;;;;;16.41;44.47754;102831;;;;-79
2022/07/16 23:25:27;;;;;;;;;;;;;;;16.34;44.60547;102828.3;;;;-81
2022/07/16 23:30:27;;;;;;;;;;;;;;;16.31;44.80664;102835.9;;;;-79
2022/07/16 23:35:29;;;;;;;;;;;;;;;16.24;44.76563;102836.5;;;;-77
2022/07/16 23:40:30;;;;;;;;;;;;;;;16.16;45.00684;102838.1;;;;-79
2022/07/16 23:45:28;;;;;;;;;;;;;;;16.12;45.10547;102848.8;;;;-79
2022/07/16 23:49:25;;;;;;;4.1;1.3;;;;;;;;;;;;;-79
2022/07/16 23:50:38;;;;;;;;;;;;;;;16.04;45.25488;102847.8;;;;-79
2022/07/16 23:55:30;;;;;;;;;;;;;;;15.98;45.54297;102846.7;;;;-80
